Terminal Aerodrome Forecast
Issued by NWS

Home | Current Version | Previous Version | Graphics & Text | Print | Product List | Glossary On
Versions: 1 2 3 4 5 6 7 8 9 10 11 12
000
FTUS41 KCLE 012330
TAFFDY
TAF
KFDY 012330Z 0200/0224 33006KT P6SM FEW250
     FM020200 02006KT P6SM SCT250
     FM020900 06008KT 4SM BR BKN025
      TEMPO 0210/0213 BKN015 OVC025
     FM021400 07010KT P6SM BKN035=

USA.gov is the U.S. government's official web portal to all federal, state and local government web resources and services.